createdAt,value
2023-05-20T00:00:39.977Z,16.03
2023-05-20T00:05:42.348Z,27.73
2023-05-20T00:10:44.385Z,15.13
2023-05-20T00:15:48.606Z,17.13
2023-05-20T00:20:50.713Z,16.03
2023-05-20T00:25:52.678Z,15.23
2023-05-20T00:30:56.284Z,16.57
2023-05-20T00:35:58.742Z,22.17
2023-05-20T00:41:00.902Z,15.17
2023-05-20T00:46:04.358Z,13.97
2023-05-20T00:51:07.907Z,14.90
2023-05-20T00:56:10.504Z,15.97
2023-05-20T01:01:13.717Z,15.63
2023-05-20T01:06:15.837Z,14.50
2023-05-20T01:11:27.457Z,17.30
2023-05-20T01:16:34.246Z,18.50
2023-05-20T01:21:37.864Z,12.30
2023-05-20T01:26:41.388Z,16.20
2023-05-20T01:31:43.569Z,16.70
2023-05-20T01:36:47.654Z,18.47
2023-05-20T01:41:52.180Z,15.90
2023-05-20T01:46:55.301Z,13.37
2023-05-20T01:51:57.606Z,19.67
2023-05-20T01:57:01.640Z,15.70
2023-05-20T02:02:03.787Z,24.10
2023-05-20T02:07:05.778Z,21.47
2023-05-20T02:12:13.001Z,21.63
2023-05-20T02:17:16.765Z,19.23
2023-05-20T02:22:19.069Z,26.67
2023-05-20T02:27:22.444Z,24.60
2023-05-20T02:32:28.155Z,19.70
2023-05-20T02:37:30.443Z,18.93
2023-05-20T02:42:33.863Z,19.93
2023-05-20T02:47:36.088Z,23.10
2023-05-20T02:52:38.206Z,19.17
2023-05-20T02:57:41.612Z,14.70
2023-05-20T03:02:43.707Z,12.03
2023-05-20T03:07:46.553Z,17.73
2023-05-20T03:12:49.728Z,11.80
2023-05-20T03:17:51.526Z,18.63
2023-05-20T03:22:53.761Z,17.30
2023-05-20T03:27:58.476Z,22.47
2023-05-20T03:33:03.057Z,15.40
2023-05-20T03:38:05.356Z,17.17
2023-05-20T03:43:08.760Z,16.17
2023-05-20T03:48:11.023Z,14.00
2023-05-20T03:53:13.180Z,13.37
2023-05-20T03:58:17.622Z,11.90
2023-05-20T04:03:19.819Z,16.93
2023-05-20T04:08:22.206Z,15.10
2023-05-20T04:13:26.657Z,17.30
2023-05-20T04:18:30.067Z,13.33
2023-05-20T04:23:32.005Z,13.47
2023-05-20T04:28:37.904Z,16.37
2023-05-20T04:33:40.297Z,14.03
2023-05-20T04:38:42.475Z,18.20
2023-05-20T04:43:46.165Z,16.73
2023-05-20T04:48:48.605Z,18.80
2023-05-20T04:53:51.004Z,24.97
2023-05-20T04:58:54.533Z,23.43
2023-05-20T05:03:56.389Z,31.43
2023-05-20T05:08:58.100Z,19.50
2023-05-20T05:14:01.816Z,18.00
2023-05-20T05:19:03.919Z,23.23
2023-05-20T05:24:05.786Z,20.10
2023-05-20T05:29:11.604Z,16.00
2023-05-20T05:34:13.837Z,18.63
2023-05-20T05:39:16.222Z,15.30
2023-05-20T05:44:20.024Z,15.67
2023-05-20T05:49:21.850Z,18.33
2023-05-20T05:54:23.857Z,15.53
2023-05-20T05:59:27.322Z,18.37
2023-05-20T06:04:29.620Z,16.30
2023-05-20T06:09:32.028Z,13.10
2023-05-20T06:14:36.874Z,14.23
2023-05-20T06:19:39.190Z,17.53
2023-05-20T06:24:41.454Z,19.07
2023-05-20T06:29:44.972Z,16.30
2023-05-20T06:34:47.080Z,17.47
2023-05-20T06:39:53.978Z,20.27
2023-05-20T06:44:57.351Z,16.53
2023-05-20T06:49:59.582Z,17.50
2023-05-20T06:55:01.684Z,16.77
2023-05-20T07:00:06.004Z,15.97
2023-05-20T07:05:08.708Z,17.53
2023-05-20T07:10:11.514Z,16.77
2023-05-20T07:15:15.209Z,15.73
2023-05-20T07:20:17.284Z,13.50
2023-05-20T07:25:19.821Z,16.17
2023-05-20T07:30:23.670Z,14.07
2023-05-20T07:35:25.948Z,15.77
2023-05-20T07:40:27.848Z,15.77
2023-05-20T07:45:31.127Z,13.90
2023-05-20T07:50:33.323Z,12.53
2023-05-20T07:55:36.440Z,13.55
2023-05-20T08:00:40.429Z,12.77
2023-05-20T08:05:43.391Z,13.33
2023-05-20T08:10:45.699Z,10.43
2023-05-20T08:15:49.720Z,10.68
2023-05-20T08:20:51.813Z,11.32
2023-05-20T08:25:57.027Z,95.75
2023-05-20T08:31:03.116Z,40.20
2023-05-20T08:36:05.361Z,60.40
2023-05-20T08:41:07.693Z,16.38
2023-05-20T08:46:12.003Z,11.15
2023-05-20T08:51:17.444Z,11.02
2023-05-20T08:56:20.301Z,8.93
2023-05-20T09:01:26.225Z,10.10
2023-05-20T09:06:28.391Z,10.40
2023-05-20T09:11:32.049Z,9.48
2023-05-20T09:16:35.813Z,7.63
2023-05-20T09:21:39.142Z,8.57
2023-05-20T09:26:41.701Z,7.72
2023-05-20T09:31:45.401Z,11.55
2023-05-20T09:36:50.836Z,8.30
2023-05-20T09:42:22.646Z,9.02
2023-05-20T09:47:30.695Z,10.80
2023-05-20T09:52:39.005Z,8.88
2023-05-20T09:57:50.462Z,10.63
2023-05-20T10:02:54.719Z,9.07
2023-05-20T10:08:19.679Z,7.82
2023-05-20T10:13:38.202Z,6.28
2023-05-20T10:18:58.291Z,9.48
2023-05-20T10:24:08.555Z,8.40
2023-05-20T10:29:17.797Z,8.82
2023-05-20T10:34:22.549Z,9.15
2023-05-20T10:39:28.732Z,11.98
2023-05-20T10:44:41.499Z,10.90
2023-05-20T10:49:46.680Z,10.50
2023-05-20T10:54:50.984Z,11.98
2023-05-20T10:59:54.739Z,19.63
2023-05-20T11:04:59.462Z,11.30
2023-05-20T11:10:01.913Z,9.10
2023-05-20T11:15:04.151Z,12.77
2023-05-20T11:20:10.487Z,12.15
2023-05-20T11:25:12.796Z,11.65
2023-05-20T11:30:17.272Z,9.48
2023-05-20T11:35:26.123Z,8.18
2023-05-20T11:40:35.759Z,11.93
2023-05-20T11:45:46.283Z,10.38
2023-05-20T11:50:50.407Z,10.25
2023-05-20T11:55:54.406Z,10.15
2023-05-20T12:01:02.333Z,9.98
2023-05-20T12:06:15.177Z,10.55
2023-05-20T12:11:17.119Z,9.45
2023-05-20T12:16:19.002Z,9.85
2023-05-20T12:21:22.739Z,8.38
2023-05-20T12:26:26.050Z,11.30
2023-05-20T12:31:28.590Z,9.80
2023-05-20T12:36:33.930Z,10.85
2023-05-20T12:41:35.899Z,10.77
2023-05-20T12:46:39.047Z,12.00
2023-05-20T12:51:42.638Z,11.63
2023-05-20T12:56:47.569Z,10.32
2023-05-20T13:01:50.254Z,11.35
2023-05-20T13:06:53.998Z,13.80
2023-05-20T13:11:56.333Z,13.80
2023-05-20T13:16:58.753Z,10.52
2023-05-20T13:22:02.435Z,9.60
2023-05-20T13:27:04.850Z,11.73
2023-05-20T13:32:07.910Z,12.40
2023-05-20T13:37:11.704Z,12.05
2023-05-20T13:42:13.935Z,9.85
2023-05-20T13:47:16.124Z,13.50
2023-05-20T13:52:19.850Z,9.65
2023-05-20T13:57:22.242Z,9.50
2023-05-20T14:02:24.278Z,9.65
2023-05-20T14:07:27.951Z,12.43
2023-05-20T14:12:30.047Z,8.77
2023-05-20T14:17:32.294Z,11.55
2023-05-20T14:22:35.633Z,9.65
2023-05-20T14:27:37.647Z,13.68
2023-05-20T14:32:40.226Z,15.18
2023-05-20T14:37:43.740Z,11.25
2023-05-20T14:42:45.537Z,13.75
2023-05-20T14:47:47.747Z,10.75
2023-05-20T14:52:51.311Z,9.23
2023-05-20T14:57:53.797Z,10.55
2023-05-20T15:02:56.075Z,14.82
2023-05-20T15:07:59.552Z,13.35
2023-05-20T15:13:01.664Z,13.13
2023-05-20T15:18:04.396Z,11.68
2023-05-20T15:23:08.123Z,12.77
2023-05-20T15:28:09.943Z,10.23
2023-05-20T15:33:12.282Z,11.32
2023-05-20T15:38:16.460Z,10.82
2023-05-20T15:43:18.357Z,11.13
2023-05-20T15:48:20.407Z,12.77
2023-05-20T15:53:24.174Z,10.27
2023-05-20T15:58:26.182Z,11.02
2023-05-20T16:03:29.210Z,9.73
2023-05-20T16:08:34.257Z,10.65
2023-05-20T16:13:36.646Z,14.52
2023-05-20T16:18:39.278Z,10.68
2023-05-20T16:23:42.650Z,19.13
2023-05-20T16:28:44.833Z,14.02
2023-05-20T16:33:46.949Z,13.43
2023-05-20T16:38:50.235Z,14.63
2023-05-20T16:43:52.770Z,15.07
2023-05-20T16:48:54.526Z,13.30
2023-05-20T16:53:58.055Z,15.10
2023-05-20T16:59:00.357Z,14.63
2023-05-20T17:04:02.431Z,15.32
2023-05-20T17:09:07.120Z,14.73
2023-05-20T17:14:09.477Z,15.57
2023-05-20T17:19:11.850Z,19.30
2023-05-20T17:24:15.580Z,14.38
2023-05-20T17:29:18.221Z,15.45
2023-05-20T17:34:20.880Z,13.43
2023-05-20T17:39:25.172Z,16.75
2023-05-20T17:44:27.447Z,14.18
2023-05-20T17:49:30.351Z,13.88
2023-05-20T17:54:35.268Z,12.57
2023-05-20T17:59:38.853Z,16.90
2023-05-20T18:04:42.216Z,12.88
2023-05-20T18:09:46.840Z,9.88
2023-05-20T18:14:49.661Z,15.25
2023-05-20T18:19:52.400Z,12.02
2023-05-20T18:24:56.866Z,14.93
2023-05-20T18:29:59.678Z,11.93
2023-05-20T18:35:02.705Z,14.83
2023-05-20T18:40:07.706Z,15.30
2023-05-20T18:45:11.414Z,14.97
2023-05-20T18:50:14.592Z,14.80
2023-05-20T18:55:19.144Z,15.13
2023-05-20T19:00:21.922Z,15.93
2023-05-20T19:05:25.042Z,16.53
2023-05-20T19:10:29.678Z,13.97
2023-05-20T19:15:32.641Z,13.57
2023-05-20T19:20:35.876Z,16.30
2023-05-20T19:25:40.442Z,19.43
2023-05-20T19:30:43.330Z,13.27
2023-05-20T19:35:46.368Z,17.53
2023-05-20T19:40:51.057Z,17.87
2023-05-20T19:45:53.888Z,13.47
2023-05-20T19:50:56.555Z,15.03
2023-05-20T19:56:00.683Z,13.23
2023-05-20T20:01:05.278Z,13.97
2023-05-20T20:06:08.346Z,18.17
2023-05-20T20:11:13.948Z,22.00
2023-05-20T20:16:18.247Z,15.27
2023-05-20T20:21:21.582Z,24.87
2023-05-20T20:26:26.612Z,27.13
2023-05-20T20:31:29.322Z,16.47
2023-05-20T20:36:32.845Z,19.60
2023-05-20T20:41:39.444Z,13.87
2023-05-20T20:46:44.113Z,14.60
2023-05-20T20:51:47.102Z,12.93
2023-05-20T20:56:52.295Z,11.47
2023-05-20T21:01:54.561Z,13.17
2023-05-20T21:06:59.547Z,11.13
2023-05-20T21:12:06.881Z,12.73
2023-05-20T21:17:10.114Z,13.63
2023-05-20T21:22:12.391Z,14.07
2023-05-20T21:27:16.121Z,13.80
2023-05-20T21:32:18.389Z,12.77
2023-05-20T21:37:20.662Z,13.10
2023-05-20T21:42:24.068Z,10.57
2023-05-20T21:47:26.374Z,14.40
2023-05-20T21:52:28.647Z,17.60
2023-05-20T21:57:32.246Z,12.50
2023-05-20T22:02:34.926Z,10.37
2023-05-20T22:07:37.175Z,11.70
2023-05-20T22:12:40.608Z,18.97
2023-05-20T22:17:42.574Z,16.13
2023-05-20T22:22:44.428Z,12.77
2023-05-20T22:27:48.368Z,14.90
2023-05-20T22:32:50.416Z,13.10
2023-05-20T22:37:52.650Z,13.50
2023-05-20T22:42:56.831Z,46.73
2023-05-20T22:47:58.998Z,191.57
2023-05-20T22:53:00.979Z,188.87
2023-05-20T22:58:05.062Z,81.83
2023-05-20T23:03:07.770Z,63.80
2023-05-20T23:08:09.905Z,24.33
2023-05-20T23:13:14.064Z,18.87
2023-05-20T23:18:16.425Z,16.00
2023-05-20T23:23:25.022Z,19.50
2023-05-20T23:28:33.450Z,15.40
2023-05-20T23:33:35.662Z,13.97
2023-05-20T23:38:37.787Z,14.33
2023-05-20T23:43:41.526Z,16.03
2023-05-20T23:48:44.921Z,13.90
2023-05-20T23:53:46.920Z,13.87
2023-05-20T23:58:50.625Z,14.50
